Time;durP1;ratioP1;P1;durP2;ratioP2;P2;SDS_P1;SDS_P2;PMS_P1;PMS_P2;Temp;Humidity;BMP_temperature;BMP_pressure;BME280_temperature;BME280_humidity;BME280_pressure;Samples;Min_cycle;Max_cycle;Signal;HPM_P1;HPM_P2
2022/11/15 00:02:27;;;;;;;13.20;8.80;;;;;;;6.69;88.21;96956.02;105234;1282;22497;-80
2022/11/15 00:04:58;;;;;;;13.00;8.40;;;;;;;6.76;87.92;96956.76;105251;1298;22542;-80
2022/11/15 00:07:29;;;;;;;13.10;8.00;;;;;;;6.76;87.59;96952.23;104416;1304;1113914;-80
2022/11/15 00:10:00;;;;;;;11.90;8.30;;;;;;;6.78;87.45;96959.35;105252;1288;25216;-79
2022/11/15 00:12:31;;;;;;;12.10;7.60;;;;;;;6.71;87.50;96953.52;105251;1289;25013;-80
2022/11/15 00:15:02;;;;;;;11.70;8.60;;;;;;;6.72;87.44;96949.45;105257;1293;22516;-80
2022/11/15 00:17:33;;;;;;;12.30;8.30;;;;;;;6.73;87.34;96945.94;105199;1304;22476;-80
2022/11/15 00:20:05;;;;;;;11.30;8.10;;;;;;;6.71;87.37;96946.71;105277;1297;24254;-80
2022/11/15 00:22:36;;;;;;;11.80;8.20;;;;;;;6.66;87.36;96942.44;105285;1305;22638;-80
2022/11/15 00:25:09;;;;;;;12.30;7.50;;;;;;;6.62;87.22;96941.59;105255;1303;22467;-80
2022/11/15 00:27:40;;;;;;;11.80;7.90;;;;;;;6.63;87.11;96940.94;105192;1304;25393;-80
2022/11/15 00:30:13;;;;;;;12.70;8.60;;;;;;;6.63;87.22;96938.56;105214;1289;22463;-80
2022/11/15 00:32:44;;;;;;;11.00;8.20;;;;;;;6.65;87.22;96937.01;105297;1304;24291;-79
2022/11/15 00:35:16;;;;;;;10.70;7.00;;;;;;;6.65;86.96;96929.15;105222;1288;24234;-80
2022/11/15 00:37:48;;;;;;;11.70;8.50;;;;;;;6.70;87.01;96928.31;105250;1282;23782;-80
2022/11/15 00:40:19;;;;;;;11.80;7.70;;;;;;;6.73;86.61;96924.17;105307;1288;26606;-80
2022/11/15 00:42:50;;;;;;;12.20;8.90;;;;;;;6.75;86.49;96924.89;105292;1303;24228;-80
2022/11/15 00:45:24;;;;;;;12.00;8.40;;;;;;;6.73;86.25;96920.55;105297;1295;25213;-80
2022/11/15 00:47:55;;;;;;;11.60;8.80;;;;;;;6.75;86.35;96918.55;105205;1303;22724;-80
2022/11/15 00:50:27;;;;;;;11.70;8.60;;;;;;;6.73;86.31;96915.17;105245;1304;22470;-80
2022/11/15 00:52:58;;;;;;;11.90;8.20;;;;;;;6.76;86.15;96913.47;105268;1281;24442;-80
2022/11/15 00:55:29;;;;;;;14.30;8.70;;;;;;;6.85;85.89;96912.30;105228;1281;22465;-80
2022/11/15 00:58:02;;;;;;;11.20;7.50;;;;;;;6.90;85.62;96913.21;105260;1302;25459;-80
2022/11/15 01:00:33;;;;;;;12.20;7.30;;;;;;;6.94;85.07;96907.61;105309;1297;24264;-80
2022/11/15 01:03:07;;;;;;;11.20;8.30;;;;;;;6.97;84.73;96901.84;105271;1303;22461;-80
2022/11/15 01:05:39;;;;;;;11.70;8.20;;;;;;;6.95;84.48;96900.19;105259;1302;22469;-80
2022/11/15 01:08:17;;;;;;;10.70;7.80;;;;;;;6.96;84.42;96896.78;105200;1304;22633;-80
2022/11/15 01:10:48;;;;;;;12.10;8.10;;;;;;;6.98;84.40;96897.54;105269;1282;22523;-80
2022/11/15 01:13:20;;;;;;;12.50;8.00;;;;;;;6.96;84.29;96900.41;105251;1297;22660;-80
2022/11/15 01:15:51;;;;;;;10.40;7.20;;;;;;;6.95;84.18;96897.56;105269;1305;25293;-80
2022/11/15 01:18:26;;;;;;;12.50;8.20;;;;;;;6.97;84.04;96895.46;105177;1304;25452;-80
2022/11/15 01:20:57;;;;;;;9.70;7.20;;;;;;;7.00;84.03;96897.29;105230;1304;23850;-80
2022/11/15 01:23:29;;;;;;;10.40;7.50;;;;;;;6.95;83.88;96894.55;105258;1305;22553;-80
2022/11/15 01:26:03;;;;;;;11.60;7.70;;;;;;;6.95;83.84;96893.66;105241;1286;22651;-80
2022/11/15 01:28:36;;;;;;;11.40;8.10;;;;;;;7.01;83.91;96886.44;105202;1296;23715;-80
2022/11/15 01:31:10;;;;;;;10.90;8.00;;;;;;;7.06;83.63;96885.29;105265;1296;22704;-80
2022/11/15 01:33:41;;;;;;;10.50;6.90;;;;;;;7.11;83.45;96882.48;105276;1304;22460;-80
2022/11/15 01:36:15;;;;;;;9.70;7.00;;;;;;;7.14;83.17;96881.02;105213;1306;22509;-78
2022/11/15 01:38:53;;;;;;;11.90;7.50;;;;;;;7.19;83.01;96885.46;105265;1304;22913;-80
2022/11/15 01:41:26;;;;;;;9.10;5.80;;;;;;;7.20;82.65;96872.35;105249;1277;23706;-80
2022/11/15 01:44:18;;;;;;;11.00;7.10;;;;;;;7.29;82.31;96874.98;105283;1290;22465;-80
2022/11/15 01:46:51;;;;;;;10.60;6.30;;;;;;;7.25;82.07;96878.23;105214;1303;23440;-81
2022/11/15 01:49:24;;;;;;;11.60;7.40;;;;;;;7.22;82.00;96878.16;105247;1282;22546;-80
2022/11/15 01:51:56;;;;;;;11.50;7.50;;;;;;;7.17;81.95;96877.94;105223;1288;22525;-80
2022/11/15 01:54:28;;;;;;;11.10;6.80;;;;;;;7.12;81.78;96879.59;105259;1282;22465;-80
2022/11/15 01:57:05;;;;;;;12.30;8.30;;;;;;;7.08;81.95;96877.50;105215;1288;23939;-80
2022/11/15 01:59:38;;;;;;;11.10;7.80;;;;;;;7.03;81.88;96875.70;105277;1303;24375;-80
2022/11/15 02:02:09;;;;;;;11.90;8.40;;;;;;;6.95;81.88;96868.89;105260;1294;22499;-80
2022/11/15 02:04:43;;;;;;;10.50;7.30;;;;;;;6.88;82.00;96867.54;105235;1298;22536;-80
2022/11/15 02:07:18;;;;;;;9.40;5.60;;;;;;;6.86;82.25;96866.46;105218;1302;24125;-80
2022/11/15 02:09:50;;;;;;;8.20;5.70;;;;;;;6.93;82.35;96858.17;105272;1303;24394;-80
2022/11/15 02:12:23;;;;;;;12.20;7.20;;;;;;;6.97;82.17;96855.36;105297;1281;22466;-80
2022/11/15 02:14:57;;;;;;;10.30;7.50;;;;;;;6.97;82.12;96852.23;105254;1287;22731;-80
2022/11/15 02:17:48;;;;;;;10.40;7.30;;;;;;;6.95;82.24;96853.23;105256;1296;22988;-80
2022/11/15 02:20:48;;;;;;;10.50;7.10;;;;;;;6.93;82.33;96849.89;105278;1304;22629;-80
2022/11/15 02:23:51;;;;;;;11.20;7.60;;;;;;;6.88;82.17;96847.91;105200;1304;22475;-80
2022/11/15 02:26:53;;;;;;;10.40;6.70;;;;;;;6.87;82.22;96845.55;105212;1281;25207;-80
2022/11/15 02:29:37;;;;;;;8.80;5.80;;;;;;;6.85;82.11;96843.58;105251;1304;22731;-80
2022/11/15 02:32:17;;;;;;;12.10;7.70;;;;;;;6.83;82.44;96841.55;105254;1304;22579;-80
2022/11/15 02:34:57;;;;;;;9.10;6.20;;;;;;;6.83;82.37;96840.73;105229;1295;22547;-80
2022/11/15 02:37:36;;;;;;;10.50;7.20;;;;;;;6.85;82.50;96839.09;105198;1304;22481;-80
2022/11/15 02:40:14;;;;;;;10.70;7.60;;;;;;;6.86;82.50;96838.63;105292;1297;25437;-80
2022/11/15 02:45:49;;;;;;;9.60;6.00;;;;;;;6.89;82.33;96837.07;105223;1305;22460;-80
2022/11/15 02:48:28;;;;;;;10.80;7.60;;;;;;;6.94;82.17;96836.67;105250;1305;22862;-80
2022/11/15 02:51:00;;;;;;;11.90;8.00;;;;;;;6.95;82.01;96841.26;105282;1282;24232;-80
2022/11/15 02:53:31;;;;;;;10.10;7.20;;;;;;;6.95;82.07;96844.48;105253;1305;24258;-80
2022/11/15 02:56:02;;;;;;;11.40;6.70;;;;;;;6.97;82.01;96837.74;105263;1281;22504;-80
2022/11/15 02:58:57;;;;;;;10.20;7.20;;;;;;;6.96;81.87;96837.80;105205;1304;22918;-80
2022/11/15 03:01:40;;;;;;;10.50;7.10;;;;;;;6.94;81.97;96836.83;105241;1304;23883;-80
2022/11/15 03:04:24;;;;;;;9.50;7.50;;;;;;;6.94;82.09;96836.20;105247;1281;25534;-80
2022/11/15 03:07:04;;;;;;;9.40;7.10;;;;;;;6.90;82.03;96838.20;105207;1282;24006;-80
2022/11/15 03:09:40;;;;;;;10.10;7.20;;;;;;;6.83;82.23;96837.55;105246;1305;22991;-80
2022/11/15 03:12:20;;;;;;;9.90;6.60;;;;;;;6.79;82.24;96833.94;105262;1296;22636;-80
2022/11/15 03:14:57;;;;;;;9.20;6.30;;;;;;;6.70;82.49;96836.73;105263;1292;24259;-80
2022/11/15 03:17:34;;;;;;;9.20;6.30;;;;;;;6.60;82.39;96834.57;105212;1304;22418;-80
2022/11/15 03:20:08;;;;;;;9.60;6.60;;;;;;;6.57;82.61;96838.02;105263;1288;24298;-80
2022/11/15 03:22:44;;;;;;;8.80;6.20;;;;;;;6.57;82.60;96835.80;105278;1299;22982;-80
2022/11/15 03:25:20;;;;;;;9.50;6.90;;;;;;;6.52;82.68;96833.13;105200;1298;22474;-80
2022/11/15 03:28:00;;;;;;;8.00;6.00;;;;;;;6.59;82.81;96832.39;105204;1305;23051;-80
2022/11/15 03:30:33;;;;;;;7.80;6.30;;;;;;;6.56;82.59;96833.26;105259;1297;25989;-80
2022/11/15 03:33:05;;;;;;;10.20;6.70;;;;;;;6.49;82.70;96828.10;105270;1300;25422;-80
2022/11/15 03:35:43;;;;;;;9.70;6.60;;;;;;;6.45;82.65;96824.81;105234;1297;22512;-80
2022/11/15 03:38:22;;;;;;;7.70;6.30;;;;;;;6.36;82.66;96822.77;105203;1298;23719;-80
2022/11/15 03:41:00;;;;;;;8.50;6.00;;;;;;;6.30;82.71;96819.78;105267;1304;22464;-80
2022/11/15 03:43:48;;;;;;;7.90;5.80;;;;;;;6.31;83.19;96815.80;105282;1305;23626;-80
2022/11/15 03:46:24;;;;;;;11.80;7.00;;;;;;;6.38;83.28;96809.84;105240;1306;22474;-80
2022/11/15 03:49:00;;;;;;;8.60;5.80;;;;;;;6.41;83.25;96806.55;105256;1296;22744;-80
2022/11/15 03:51:32;;;;;;;7.90;6.00;;;;;;;6.40;83.08;96805.91;105230;1289;25251;-79
2022/11/15 03:54:05;;;;;;;8.10;5.60;;;;;;;6.34;83.06;96804.95;105227;1298;22537;-80
2022/11/15 03:56:37;;;;;;;7.90;5.80;;;;;;;6.28;83.11;96806.92;105235;1304;24211;-80
2022/11/15 03:59:08;;;;;;;8.10;6.10;;;;;;;6.26;83.38;96801.16;105252;1304;22468;-80
2022/11/15 04:01:39;;;;;;;7.80;5.80;;;;;;;6.30;83.52;96794.26;105238;1288;26116;-80
2022/11/15 04:04:11;;;;;;;8.60;5.90;;;;;;;6.36;83.68;96793.38;105239;1303;22449;-80
2022/11/15 04:06:42;;;;;;;8.40;5.90;;;;;;;6.45;83.64;96794.38;105195;1304;24962;-80
2022/11/15 04:09:13;;;;;;;9.40;6.50;;;;;;;6.55;83.35;96789.54;105220;1289;24273;-80
2022/11/15 04:11:44;;;;;;;9.80;6.40;;;;;;;6.55;83.20;96783.89;105249;1304;22596;-80
2022/11/15 04:14:15;;;;;;;9.30;6.00;;;;;;;6.52;83.14;96787.83;105238;1304;22609;-80
2022/11/15 04:16:47;;;;;;;8.10;5.60;;;;;;;6.51;83.12;96781.49;105179;1288;25460;-80
2022/11/15 04:24:57;;;;;;;9.00;6.40;;;;;;;6.54;83.01;96776.05;105235;1304;24217;-80
2022/11/15 04:27:28;;;;;;;7.90;5.50;;;;;;;6.55;83.08;96770.52;105224;1306;22476;-80
2022/11/15 04:29:59;;;;;;;7.60;5.20;;;;;;;6.50;82.92;96765.52;105257;1277;23249;-80
2022/11/15 04:32:30;;;;;;;8.60;5.60;;;;;;;6.46;83.10;96760.35;105238;1296;22496;-80
2022/11/15 04:35:04;;;;;;;7.70;5.10;;;;;;;6.51;83.07;96758.95;105268;1297;22462;-80
2022/11/15 04:37:35;;;;;;;9.60;6.50;;;;;;;6.58;83.00;96752.47;105196;1303;25399;-80
2022/11/15 04:40:08;;;;;;;8.70;6.10;;;;;;;6.64;82.62;96744.48;105296;1288;22517;-80
2022/11/15 04:42:41;;;;;;;9.30;6.10;;;;;;;6.70;82.51;96738.62;105297;1285;22482;-80
2022/11/15 04:45:13;;;;;;;7.00;5.00;;;;;;;6.70;82.42;96734.98;105280;1303;22454;-80
2022/11/15 04:47:46;;;;;;;6.60;4.70;;;;;;;6.76;82.23;96737.21;105218;1303;22535;-81
2022/11/15 04:50:18;;;;;;;7.90;5.50;;;;;;;6.80;81.95;96738.83;105229;1291;23840;-80
2022/11/15 04:52:55;;;;;;;7.60;5.50;;;;;;;6.84;81.77;96733.58;105300;1304;25418;-81
2022/11/15 04:55:28;;;;;;;9.30;5.60;;;;;;;6.97;81.60;96732.58;105228;1304;25368;-80
2022/11/15 04:58:04;;;;;;;8.30;5.50;;;;;;;7.05;81.12;96732.55;105199;1297;25214;-80
2022/11/15 05:00:35;;;;;;;8.00;5.90;;;;;;;7.03;80.93;96730.37;105271;1294;22611;-80
2022/11/15 05:05:57;;;;;;;6.30;4.20;;;;;;;6.92;80.81;96713.84;105253;1297;22464;-80
2022/11/15 05:08:28;;;;;;;9.20;6.30;;;;;;;6.93;80.76;96716.64;105243;1290;22544;-80
2022/11/15 05:11:00;;;;;;;6.90;5.00;;;;;;;6.89;80.80;96711.48;105251;1275;22598;-81
2022/11/15 05:13:31;;;;;;;8.00;5.70;;;;;;;6.88;80.76;96707.52;105270;1303;22509;-80
2022/11/15 05:16:02;;;;;;;10.00;5.80;;;;;;;6.90;80.70;96702.16;105277;1303;22513;-80
2022/11/15 05:18:34;;;;;;;8.40;5.90;;;;;;;6.87;80.65;96700.19;105209;1290;25288;-80
2022/11/15 05:21:08;;;;;;;8.00;6.10;;;;;;;6.82;80.88;96700.42;105250;1294;22472;-80
2022/11/15 05:23:40;;;;;;;8.40;4.80;;;;;;;6.77;80.91;96695.89;105261;1288;25258;-80
2022/11/15 05:26:14;;;;;;;15.90;6.20;;;;;;;6.73;80.96;96696.80;105264;1303;22539;-80
2022/11/15 05:28:54;;;;;;;12.40;8.70;;;;;;;6.72;81.08;96688.38;105211;1296;22480;-80
2022/11/15 05:31:26;;;;;;;12.80;7.10;;;;;;;6.72;81.02;96685.20;105295;1281;24253;-79
2022/11/15 05:34:07;;;;;;;16.30;11.30;;;;;;;6.73;81.24;96682.54;105231;1306;24682;-80
2022/11/15 05:36:44;;;;;;;60.20;25.90;;;;;;;6.77;81.25;96679.21;105202;1303;23691;-79
2022/11/15 05:39:15;;;;;;;84.40;34.90;;;;;;;6.81;81.35;96682.81;105309;1289;22508;-80
2022/11/15 05:41:54;;;;;;;88.60;36.60;;;;;;;6.84;81.47;96674.56;105247;1288;23236;-80
2022/11/15 05:44:26;;;;;;;9.70;6.60;;;;;;;6.90;81.57;96674.29;105304;1289;22465;-80
2022/11/15 05:46:58;;;;;;;13.10;7.50;;;;;;;6.99;81.29;96676.56;105228;1303;22458;-80
2022/11/15 05:49:36;;;;;;;8.50;5.20;;;;;;;6.99;81.21;96678.09;105281;1295;23164;-80
2022/11/15 05:52:10;;;;;;;8.30;6.20;;;;;;;6.96;81.18;96672.96;105281;1303;22468;-80
2022/11/15 05:54:42;;;;;;;7.50;4.10;;;;;;;6.98;81.31;96672.60;105305;1285;22460;-80
2022/11/15 05:57:14;;;;;;;9.10;5.70;;;;;;;7.00;81.15;96669.55;105241;1303;22518;-80
2022/11/15 05:59:45;;;;;;;46.60;15.60;;;;;;;7.04;81.04;96672.95;105282;1295;22537;-80
2022/11/15 06:02:16;;;;;;;76.80;21.30;;;;;;;7.04;80.93;96676.44;105277;1282;22522;-80
2022/11/15 06:04:48;;;;;;;15.70;7.70;;;;;;;6.95;80.73;96674.54;105286;1301;22466;-80
2022/11/15 06:07:19;;;;;;;7.30;5.20;;;;;;;6.85;80.87;96672.14;105216;1303;23886;-80
2022/11/15 06:09:50;;;;;;;52.90;22.00;;;;;;;6.77;81.13;96668.56;105282;1303;25440;-80
2022/11/15 06:12:24;;;;;;;35.20;18.50;;;;;;;6.70;81.13;96668.27;105283;1297;22469;-80
2022/11/15 06:14:55;;;;;;;9.70;6.80;;;;;;;6.69;81.55;96664.48;105288;1288;22465;-80
2022/11/15 06:17:26;;;;;;;8.60;6.00;;;;;;;6.80;81.77;96659.04;105224;1303;22951;-80
2022/11/15 06:19:58;;;;;;;9.10;6.00;;;;;;;7.06;81.80;96660.01;105287;1285;22554;-80
2022/11/15 06:22:29;;;;;;;7.00;5.00;;;;;;;7.28;81.35;96658.66;105243;1289;22630;-80
2022/11/15 06:25:00;;;;;;;7.00;4.50;;;;;;;7.51;80.99;96657.02;105263;1303;22447;-80
2022/11/15 06:27:31;;;;;;;6.80;4.50;;;;;;;7.71;80.30;96658.13;105206;1303;22453;-80
2022/11/15 06:30:02;;;;;;;7.80;5.90;;;;;;;7.89;79.74;96655.27;105266;1300;22452;-80
2022/11/15 06:32:33;;;;;;;7.20;6.00;;;;;;;8.01;79.19;96661.91;105265;1295;22463;-80
2022/11/15 06:35:06;;;;;;;8.60;5.90;;;;;;;8.09;78.96;96661.14;105264;1303;22566;-80
2022/11/15 06:37:37;;;;;;;8.10;5.90;;;;;;;8.31;78.74;96661.56;105259;1303;22605;-81
2022/11/15 06:40:11;;;;;;;7.90;4.70;;;;;;;8.58;78.22;96662.46;105281;1303;22725;-80
2022/11/15 06:42:43;;;;;;;7.40;5.60;;;;;;;8.80;76.70;96663.89;105307;1297;22588;-80
2022/11/15 06:45:14;;;;;;;6.30;4.50;;;;;;;9.04;76.55;96668.79;105275;1285;24227;-81
2022/11/15 06:47:48;;;;;;;6.70;5.10;;;;;;;9.39;75.71;96666.29;105200;1288;23948;-81
2022/11/15 06:50:20;;;;;;;6.60;5.00;;;;;;;9.77;75.04;96668.43;105271;1287;23704;-80
2022/11/15 06:52:51;;;;;;;5.40;4.10;;;;;;;10.17;74.20;96669.38;105263;1294;22469;-81
2022/11/15 06:55:24;;;;;;;4.70;4.20;;;;;;;10.45;72.87;96670.28;105289;1303;22469;-81
2022/11/15 06:57:55;;;;;;;5.70;4.60;;;;;;;10.71;71.82;96672.80;105210;1303;22484;-79
2022/11/15 07:00:27;;;;;;;5.10;4.00;;;;;;;10.98;70.75;96674.06;105249;1291;22466;-79
2022/11/15 07:03:00;;;;;;;5.50;4.40;;;;;;;11.13;69.21;96673.88;105259;1289;22482;-78
2022/11/15 07:05:32;;;;;;;5.60;4.40;;;;;;;11.35;68.74;96671.60;105300;1303;25321;-79
2022/11/15 07:08:07;;;;;;;5.60;3.70;;;;;;;11.49;67.19;96673.52;105194;1301;22477;-79
2022/11/15 07:10:38;;;;;;;5.70;4.00;;;;;;;11.47;66.04;96671.05;105302;1296;25410;-79
2022/11/15 07:13:10;;;;;;;4.80;4.00;;;;;;;11.56;65.43;96670.16;105280;1287;22469;-79
2022/11/15 07:15:41;;;;;;;5.10;4.60;;;;;;;11.80;65.74;96672.23;105240;1288;22458;-79
2022/11/15 07:18:15;;;;;;;5.00;4.50;;;;;;;12.02;64.25;96666.98;105232;1303;23285;-79
2022/11/15 07:20:46;;;;;;;5.20;4.10;;;;;;;12.13;63.90;96668.12;105259;1303;22465;-79
2022/11/15 07:23:17;;;;;;;7.50;4.00;;;;;;;12.28;63.80;96666.44;105275;1303;22464;-79
2022/11/15 07:25:49;;;;;;;5.00;4.40;;;;;;;12.48;62.67;96661.13;105266;1297;22542;-79
2022/11/15 07:28:20;;;;;;;6.40;4.10;;;;;;;12.56;62.54;96662.09;105211;1297;22468;-79
2022/11/15 07:30:51;;;;;;;4.80;4.20;;;;;;;12.77;62.68;96658.52;105280;1294;25411;-79
2022/11/15 07:33:25;;;;;;;4.80;4.30;;;;;;;12.95;61.83;96656.79;105266;1292;22538;-79
2022/11/15 07:35:59;;;;;;;6.50;4.00;;;;;;;13.06;62.05;96653.84;105271;1303;22629;-79
2022/11/15 07:38:30;;;;;;;5.30;4.40;;;;;;;13.12;61.21;96653.16;105258;1303;26216;-79
2022/11/15 07:41:04;;;;;;;5.80;4.50;;;;;;;13.28;61.06;96647.45;105265;1298;22537;-79
2022/11/15 07:43:35;;;;;;;6.30;4.20;;;;;;;13.17;59.92;96646.48;105330;1288;27670;-79
2022/11/15 07:46:09;;;;;;;7.00;4.30;;;;;;;13.01;60.08;96650.77;105262;1303;24166;-80
2022/11/15 07:48:41;;;;;;;6.70;4.70;;;;;;;13.06;60.52;96643.48;105246;1305;34817;-79
2022/11/15 07:51:18;;;;;;;6.60;4.90;;;;;;;12.90;60.19;96637.07;105248;1294;24260;-79
2022/11/15 07:53:49;;;;;;;5.90;5.00;;;;;;;12.69;60.34;96643.05;105246;1303;22676;-79
2022/11/15 07:56:23;;;;;;;6.60;5.10;;;;;;;12.82;61.56;96637.62;105222;1304;22480;-79
2022/11/15 07:58:54;;;;;;;5.80;4.60;;;;;;;12.98;60.93;96634.44;105258;1304;22476;-79
2022/11/15 08:01:25;;;;;;;6.40;4.80;;;;;;;12.88;60.82;96631.25;105255;1289;22834;-80
2022/11/15 08:03:57;;;;;;;5.40;4.20;;;;;;;12.89;61.24;96629.30;105245;1306;22524;-80
2022/11/15 08:06:28;;;;;;;6.00;4.80;;;;;;;13.04;61.26;96625.37;105191;1305;28350;-80
2022/11/15 08:08:59;;;;;;;7.40;5.10;;;;;;;12.93;60.61;96624.66;105284;1304;24237;-81
2022/11/15 08:11:31;;;;;;;6.70;4.90;;;;;;;12.92;61.31;96626.66;105252;1291;25242;-80
2022/11/15 08:14:02;;;;;;;6.20;4.60;;;;;;;13.07;60.64;96620.23;105260;1297;23823;-80
2022/11/15 08:16:34;;;;;;;5.20;4.40;;;;;;;12.59;59.73;96618.48;105234;1303;27311;-81
2022/11/15 08:19:07;;;;;;;6.50;5.10;;;;;;;12.40;61.19;96617.55;105287;1282;26432;-80
2022/11/15 08:21:38;;;;;;;5.80;4.60;;;;;;;12.44;61.07;96617.48;105264;1280;22563;-80
2022/11/15 08:24:12;;;;;;;5.40;4.00;;;;;;;12.34;61.34;96618.90;105226;1285;22461;-80
2022/11/15 08:26:45;;;;;;;5.70;4.30;;;;;;;12.27;61.02;96618.55;105220;1303;24720;-80
2022/11/15 08:29:17;;;;;;;4.50;3.30;;;;;;;12.12;61.29;96616.57;105274;1303;23753;-80
2022/11/15 08:31:49;;;;;;;6.90;5.00;;;;;;;12.00;61.20;96614.62;105271;1297;22464;-80
2022/11/15 08:34:20;;;;;;;6.60;3.50;;;;;;;11.99;62.57;96613.03;105275;1303;22471;-80
2022/11/15 08:36:52;;;;;;;4.60;3.90;;;;;;;11.94;61.63;96612.95;105237;1295;24640;-80
2022/11/15 08:39:23;;;;;;;5.50;4.10;;;;;;;11.77;61.68;96611.02;105299;1303;22471;-80
2022/11/15 08:41:55;;;;;;;5.50;4.50;;;;;;;11.57;61.92;96609.61;105299;1288;23717;-80
2022/11/15 08:44:26;;;;;;;6.80;4.10;;;;;;;11.52;62.48;96605.30;105284;1303;22537;-80
2022/11/15 08:46:58;;;;;;;6.80;4.90;;;;;;;11.39;62.55;96608.76;105251;1303;24212;-80
2022/11/15 08:49:29;;;;;;;6.20;4.20;;;;;;;11.39;63.14;96607.54;105279;1297;22470;-80
2022/11/15 08:52:00;;;;;;;5.70;4.50;;;;;;;11.42;63.23;96609.59;105260;1281;25198;-80
2022/11/15 08:54:31;;;;;;;6.00;5.00;;;;;;;11.46;63.11;96612.49;105269;1282;22481;-80
2022/11/15 08:57:05;;;;;;;6.60;4.80;;;;;;;11.49;63.33;96607.10;105246;1303;26452;-80
2022/11/15 08:59:36;;;;;;;5.70;4.80;;;;;;;11.59;63.65;96605.76;105279;1298;26919;-80
2022/11/15 09:02:12;;;;;;;7.50;5.10;;;;;;;11.63;63.17;96606.18;105306;1295;22521;-80
2022/11/15 09:04:45;;;;;;;6.90;4.80;;;;;;;11.63;63.39;96605.98;105289;1303;25234;-80
2022/11/15 09:07:19;;;;;;;8.20;4.80;;;;;;;11.65;63.56;96608.40;105210;1300;22531;-80
2022/11/15 09:09:52;;;;;;;9.00;6.00;;;;;;;11.69;63.45;96608.61;105286;1303;22502;-80
2022/11/15 09:12:24;;;;;;;7.30;5.70;;;;;;;11.84;64.23;96607.71;105225;1303;22455;-80
2022/11/15 09:14:55;;;;;;;7.00;5.80;;;;;;;11.98;63.80;96609.82;105304;1288;22458;-80
2022/11/15 09:17:26;;;;;;;7.10;5.80;;;;;;;12.01;63.03;96606.64;105236;1301;22483;-80
2022/11/15 09:20:00;;;;;;;6.90;4.90;;;;;;;12.02;63.33;96608.42;105240;1303;22671;-80
2022/11/15 09:22:31;;;;;;;8.10;5.10;;;;;;;12.13;63.65;96599.86;105235;1288;25381;-80
2022/11/15 09:25:02;;;;;;;7.50;5.40;;;;;;;12.30;63.68;96599.93;105276;1288;23767;-80
2022/11/15 09:27:34;;;;;;;7.50;4.90;;;;;;;12.42;63.07;96600.23;105215;1282;22502;-80
2022/11/15 09:30:08;;;;;;;7.20;5.40;;;;;;;12.57;62.60;96592.23;105246;1303;22462;-80
2022/11/15 09:32:39;;;;;;;8.10;5.60;;;;;;;12.67;62.18;96588.55;105317;1303;22459;-80
2022/11/15 09:35:12;;;;;;;6.80;5.00;;;;;;;12.70;61.35;96591.39;105272;1302;25899;-80
2022/11/15 09:37:43;;;;;;;7.30;5.10;;;;;;;12.74;61.70;96587.96;105230;1303;22467;-80
2022/11/15 09:40:19;;;;;;;6.40;4.90;;;;;;;12.79;61.30;96581.80;105258;1303;22508;-80
2022/11/15 09:43:05;;;;;;;7.00;5.30;;;;;;;12.85;61.22;96580.34;105299;1301;22463;-80
2022/11/15 09:45:54;;;;;;;6.30;4.70;;;;;;;12.90;60.90;96577.41;105265;1303;24949;-80
2022/11/15 09:48:47;;;;;;;6.60;4.90;;;;;;;12.92;59.50;96573.36;105230;1288;25402;-80
2022/11/15 09:51:24;;;;;;;6.00;4.70;;;;;;;12.91;60.17;96570.73;105248;1289;22491;-80
2022/11/15 09:54:04;;;;;;;5.30;4.30;;;;;;;13.08;60.35;96560.97;105248;1304;22468;-80
2022/11/15 09:56:39;;;;;;;7.10;4.90;;;;;;;13.18;59.85;96555.52;105231;1284;22488;-80
2022/11/15 09:59:23;;;;;;;6.00;4.50;;;;;;;13.35;60.27;96558.35;105260;1291;25215;-80
2022/11/15 10:02:03;;;;;;;6.60;4.90;;;;;;;13.50;60.20;96552.02;105290;1290;22481;-81
2022/11/15 10:04:37;;;;;;;5.30;4.30;;;;;;;13.59;59.42;96550.08;105232;1298;25902;-81
2022/11/15 10:07:19;;;;;;;6.70;4.90;;;;;;;13.59;59.37;96547.60;105203;1287;25275;-80
2022/11/15 10:10:03;;;;;;;6.50;4.80;;;;;;;13.77;59.53;96542.98;105256;1305;24255;-80
2022/11/15 10:12:34;;;;;;;6.20;5.00;;;;;;;13.98;59.43;96536.11;105222;1299;22596;-81
2022/11/15 10:15:11;;;;;;;6.80;5.20;;;;;;;14.25;59.45;96533.20;105289;1306;22468;-81
2022/11/15 10:18:00;;;;;;;7.20;4.80;;;;;;;14.43;58.99;96527.23;105196;1306;23307;-82
2022/11/15 10:20:41;;;;;;;5.10;4.00;;;;;;;14.51;58.48;96528.12;105246;1294;22472;-82
2022/11/15 10:23:17;;;;;;;7.00;5.30;;;;;;;14.38;58.15;96526.96;105281;1307;22461;-82
2022/11/15 10:25:51;;;;;;;6.00;4.50;;;;;;;14.29;57.97;96523.04;105268;1294;22807;-81
2022/11/15 10:28:27;;;;;;;7.90;5.10;;;;;;;14.21;57.73;96518.88;105214;1303;23824;-81
2022/11/15 10:31:00;;;;;;;6.50;5.20;;;;;;;14.21;58.01;96516.38;105275;1303;25923;-81
2022/11/15 10:33:34;;;;;;;7.10;5.00;;;;;;;14.30;58.54;96514.45;105220;1306;22469;-81
2022/11/15 10:36:25;;;;;;;6.50;5.10;;;;;;;14.37;57.73;96507.75;105251;1287;22484;-79
2022/11/15 10:39:00;;;;;;;7.00;4.70;;;;;;;14.21;57.69;96506.83;105305;1298;24140;-79
2022/11/15 10:41:48;;;;;;;6.40;5.30;;;;;;;14.25;58.00;96503.34;105252;1288;22470;-79
2022/11/15 10:44:26;;;;;;;7.20;4.90;;;;;;;14.23;57.92;96500.77;105230;1284;22484;-79
2022/11/15 10:47:24;;;;;;;7.00;5.00;;;;;;;14.17;57.62;96501.34;105253;1281;22469;-79
2022/11/15 10:50:04;;;;;;;7.40;4.50;;;;;;;13.95;57.55;96498.27;105255;1306;26584;-78
2022/11/15 10:52:37;;;;;;;5.30;4.20;;;;;;;13.84;58.31;96491.23;105258;1306;22493;-78
2022/11/15 10:55:29;;;;;;;6.40;4.70;;;;;;;13.78;58.38;96493.01;105241;1305;22498;-78
2022/11/15 10:58:07;;;;;;;6.80;4.80;;;;;;;13.79;58.75;96485.97;105187;1285;23269;-78
2022/11/15 11:00:39;;;;;;;6.10;4.90;;;;;;;13.78;58.81;96482.41;105246;1289;25690;-78
2022/11/15 11:03:31;;;;;;;6.40;4.30;;;;;;;13.70;58.61;96478.39;105268;1306;22468;-79
2022/11/15 11:06:11;;;;;;;5.40;4.10;;;;;;;13.58;58.82;96476.27;105245;1307;22467;-78
2022/11/15 11:08:53;;;;;;;6.60;4.40;;;;;;;13.51;58.76;96465.02;105264;1303;33734;-78
2022/11/15 11:11:25;;;;;;;5.10;4.10;;;;;;;13.64;59.08;96466.60;105252;1297;22505;-78
2022/11/15 11:14:12;;;;;;;6.10;4.30;;;;;;;13.84;59.32;96458.77;105230;1304;22465;-78
2022/11/15 11:16:54;;;;;;;6.00;4.50;;;;;;;14.13;59.40;96454.62;105223;1306;22483;-78
2022/11/15 11:19:53;;;;;;;5.10;3.90;;;;;;;14.29;58.82;96451.20;105228;1309;22455;-79
2022/11/15 11:22:31;;;;;;;5.40;3.60;;;;;;;14.41;58.30;96450.62;105236;1305;22510;-79
2022/11/15 11:25:18;;;;;;;5.10;3.80;;;;;;;14.52;58.06;96445.45;105269;1295;24237;-78
2022/11/15 11:28:03;;;;;;;5.50;4.20;;;;;;;14.57;57.34;96445.79;105230;1303;25907;-78
2022/11/15 11:30:47;;;;;;;5.20;4.00;;;;;;;14.52;57.35;96441.08;105287;1309;24269;-79
2022/11/15 11:33:22;;;;;;;6.00;4.40;;;;;;;14.66;57.45;96438.64;105264;1294;22466;-79
2022/11/15 11:36:07;;;;;;;6.20;4.40;;;;;;;14.75;57.25;96435.65;105287;1303;22461;-79
2022/11/15 11:38:51;;;;;;;5.20;3.90;;;;;;;14.85;57.19;96434.16;105241;1309;31320;-79
2022/11/15 11:41:39;;;;;;;8.00;5.70;;;;;;;14.88;56.83;96426.42;105281;1307;22863;-79
2022/11/15 11:44:24;;;;;;;6.00;4.40;;;;;;;14.94;56.57;96425.58;105267;1288;23198;-79
2022/11/15 11:47:00;;;;;;;5.20;4.20;;;;;;;14.66;55.75;96424.80;105205;1296;22467;-79
2022/11/15 11:49:43;;;;;;;7.50;4.10;;;;;;;14.30;56.05;96425.29;105304;1284;22562;-79
2022/11/15 11:52:19;;;;;;;7.00;4.70;;;;;;;13.98;56.17;96419.06;105237;1304;22722;-79
2022/11/15 11:54:59;;;;;;;6.40;4.40;;;;;;;13.70;56.79;96412.66;105258;1309;22478;-78
2022/11/15 11:57:34;;;;;;;;;;;;;;;13.47;57.46;96411.54;105230;1304;22523;-78
2022/11/15 12:00:19;;;;;;;18.30;9.50;;;;;;;13.27;57.42;96416.22;105277;1293;22496;-78
2022/11/15 12:03:04;;;;;;;6.00;4.40;;;;;;;13.13;57.95;96414.55;105281;1294;24894;-79
2022/11/15 12:05:41;;;;;;;6.40;4.10;;;;;;;13.01;58.13;96414.29;105260;1304;24250;-78
2022/11/15 12:08:32;;;;;;;6.30;3.80;;;;;;;12.85;57.97;96413.71;104469;1303;24270;-78
2022/11/15 12:11:12;;;;;;;5.90;3.90;;;;;;;12.72;58.40;96410.70;105251;1303;22497;-78
2022/11/15 12:13:49;;;;;;;4.80;4.10;;;;;;;12.67;58.62;96410.15;105267;1303;22731;-78
2022/11/15 12:16:24;;;;;;;6.30;4.80;;;;;;;12.67;59.00;96406.89;105232;1303;23909;-78